createdAt,value
2019-05-17T00:00:57.156Z,94743.34
2019-05-17T00:01:58.276Z,94740.16
2019-05-17T00:03:01.525Z,94736.79
2019-05-17T00:04:04.283Z,94731.14
2019-05-17T00:05:07.609Z,94732.70
2019-05-17T00:06:10.428Z,94729.00
2019-05-17T00:07:13.591Z,94734.55
2019-05-17T00:08:20.356Z,94732.17
2019-05-17T00:09:21.209Z,94741.78
2019-05-17T00:10:26.368Z,94734.55
2019-05-17T00:11:28.867Z,94734.22
2019-05-17T00:12:31.661Z,94740.34
2019-05-17T00:13:34.782Z,94743.85
2019-05-17T00:14:37.643Z,94735.35
2019-05-17T00:15:40.794Z,94739.34
2019-05-17T00:16:43.565Z,94742.81
2019-05-17T00:17:47.058Z,94738.83
2019-05-17T00:18:50.035Z,94739.86
2019-05-17T00:19:53.145Z,94742.81
2019-05-17T00:20:57.010Z,94740.97
2019-05-17T00:22:00.318Z,94735.66
2019-05-17T00:23:03.073Z,94737.69
2019-05-17T00:24:06.647Z,94735.55
2019-05-17T00:25:09.834Z,94744.05
2019-05-17T00:26:12.957Z,94736.58
2019-05-17T00:27:17.246Z,94731.37
2019-05-17T00:28:20.584Z,94729.41
2019-05-17T00:29:23.338Z,94729.60
2019-05-17T00:30:26.685Z,94732.59
2019-05-17T00:31:29.532Z,94732.17
2019-05-17T00:32:32.731Z,94735.88
2019-05-17T00:33:36.639Z,94737.20
2019-05-17T00:34:40.012Z,94731.88
2019-05-17T00:35:42.800Z,94739.02
2019-05-17T00:36:46.957Z,94739.34
2019-05-17T00:37:49.916Z,94739.34
2019-05-17T00:38:53.207Z,94738.31
2019-05-17T00:39:56.726Z,94737.50
2019-05-17T00:40:59.942Z,94740.16
2019-05-17T00:42:02.778Z,94735.35
2019-05-17T00:43:06.677Z,94732.47
2019-05-17T00:44:09.824Z,94730.84
2019-05-17T00:45:13.170Z,94735.55
2019-05-17T00:46:17.229Z,94729.22
2019-05-17T00:47:20.565Z,94728.89
2019-05-17T00:48:23.379Z,94735.44
2019-05-17T00:49:26.521Z,94735.88
2019-05-17T00:50:29.301Z,94737.39
2019-05-17T00:51:32.435Z,94737.20
2019-05-17T00:52:36.868Z,94731.55
2019-05-17T00:53:40.011Z,94736.69
2019-05-17T00:54:42.770Z,94724.39
2019-05-17T00:55:46.635Z,94729.52
2019-05-17T00:56:49.575Z,94732.17
2019-05-17T00:57:56.456Z,94733.51
2019-05-17T00:58:57.155Z,94731.37
2019-05-17T01:00:00.364Z,94731.04
2019-05-17T01:01:03.124Z,94735.88
2019-05-17T01:02:06.997Z,94740.67
2019-05-17T01:03:09.844Z,94741.19
2019-05-17T01:04:13.089Z,94743.85
2019-05-17T01:05:17.216Z,94742.81
2019-05-17T01:06:20.463Z,94744.96
2019-05-17T01:07:23.155Z,94740.86
2019-05-17T01:08:26.674Z,94743.52
2019-05-17T01:09:29.584Z,94746.19
2019-05-17T01:10:32.717Z,94740.86
2019-05-17T01:11:36.567Z,94739.86
2019-05-17T01:12:39.811Z,94740.86
2019-05-17T01:13:42.581Z,94741.19
2019-05-17T01:14:46.663Z,94740.16
2019-05-17T01:15:49.530Z,94743.34
2019-05-17T01:16:52.656Z,94738.53
2019-05-17T01:17:56.316Z,94742.52
2019-05-17T01:18:59.583Z,94734.55
2019-05-17T01:20:02.522Z,94730.55
2019-05-17T01:21:06.609Z,94736.58
2019-05-17T01:22:09.398Z,94733.70
2019-05-17T01:23:12.532Z,94740.16
2019-05-17T01:24:17.334Z,94742.81
2019-05-17T01:25:20.042Z,94745.19
2019-05-17T01:26:22.804Z,94743.11
2019-05-17T01:27:26.374Z,94743.11
2019-05-17T01:28:29.210Z,94745.19
2019-05-17T01:29:32.346Z,94740.86
2019-05-17T01:30:37.430Z,94739.53
2019-05-17T01:31:40.022Z,94737.09
2019-05-17T01:32:42.782Z,94734.22
2019-05-17T01:33:47.052Z,94732.89
2019-05-17T01:34:50.014Z,94739.02
2019-05-17T01:35:53.114Z,94728.70
2019-05-17T01:36:56.918Z,94733.92
2019-05-17T01:38:00.030Z,94732.59
2019-05-17T01:39:14.337Z,94728.27
2019-05-17T01:40:08.069Z,94731.26
2019-05-17T01:41:10.847Z,94730.23
2019-05-17T01:42:14.057Z,94731.55
2019-05-17T01:43:16.833Z,94729.70
2019-05-17T01:44:19.962Z,94730.74
2019-05-17T01:45:22.792Z,94727.27
2019-05-17T01:46:26.489Z,94725.13
2019-05-17T01:47:29.435Z,94724.61
2019-05-17T01:48:32.567Z,94721.44
2019-05-17T01:49:36.299Z,94719.48
2019-05-17T01:50:39.601Z,94718.15
2019-05-17T01:51:42.376Z,94716.82
2019-05-17T01:52:46.188Z,94717.96
2019-05-17T01:53:49.067Z,94722.77
2019-05-17T01:54:52.205Z,94713.64
2019-05-17T01:55:56.800Z,94722.77
2019-05-17T01:56:59.768Z,94722.95
2019-05-17T01:58:02.527Z,94718.67
2019-05-17T01:59:06.856Z,94719.48
2019-05-17T02:00:10.682Z,94717.63
2019-05-17T02:01:13.814Z,94716.30
2019-05-17T02:02:33.560Z,94717.63
2019-05-17T02:03:37.463Z,94714.16
2019-05-17T02:04:40.551Z,94720.91
2019-05-17T02:05:43.776Z,94723.58
2019-05-17T02:06:46.779Z,94720.10
2019-05-17T02:07:50.113Z,94728.89
2019-05-17T02:08:52.953Z,94725.42
2019-05-17T02:09:56.847Z,94723.58
2019-05-17T02:10:59.662Z,94718.77
2019-05-17T02:12:02.797Z,94718.25
2019-05-17T02:13:06.592Z,94721.53
2019-05-17T02:14:10.146Z,94721.44
2019-05-17T02:15:13.096Z,94724.39
2019-05-17T02:16:16.632Z,94727.05
2019-05-17T02:17:19.460Z,94720.39
2019-05-17T02:18:22.606Z,94719.59
2019-05-17T02:19:26.520Z,94718.25
2019-05-17T02:20:29.773Z,94718.58
2019-05-17T02:21:32.529Z,94718.25
2019-05-17T02:22:36.709Z,94720.73
2019-05-17T02:23:39.732Z,94715.70
2019-05-17T02:24:42.869Z,94721.02
2019-05-17T02:25:47.204Z,94715.08
2019-05-17T02:26:50.514Z,94713.75
2019-05-17T02:27:53.265Z,94716.41
2019-05-17T02:28:56.447Z,94714.27
2019-05-17T02:30:02.190Z,94712.13
2019-05-17T02:31:04.122Z,94713.27
2019-05-17T02:32:06.981Z,94712.13
2019-05-17T02:33:12.633Z,94710.80
2019-05-17T02:34:14.536Z,94707.84
2019-05-17T02:35:17.667Z,94713.75
2019-05-17T02:36:22.871Z,94708.95
2019-05-17T02:37:25.245Z,94719.91
2019-05-17T02:38:28.008Z,94713.64
2019-05-17T02:39:32.661Z,94716.41
2019-05-17T02:40:35.548Z,94717.73
2019-05-17T02:41:38.669Z,94721.24
2019-05-17T02:42:42.955Z,94717.44
2019-05-17T02:43:46.221Z,94712.64
2019-05-17T02:44:49.021Z,94715.92
2019-05-17T02:45:52.908Z,94717.63
2019-05-17T02:46:55.826Z,94721.14
2019-05-17T02:47:59.050Z,94725.61
2019-05-17T02:49:03.053Z,94721.95
2019-05-17T02:50:07.013Z,94725.31
2019-05-17T02:51:12.839Z,94732.59
2019-05-17T02:52:14.650Z,94728.89
2019-05-17T02:53:17.414Z,94724.61
2019-05-17T02:54:23.252Z,94723.47
2019-05-17T02:55:25.101Z,94725.13
2019-05-17T02:56:28.238Z,94725.83
2019-05-17T02:57:34.410Z,94723.38
2019-05-17T02:58:35.882Z,94720.62
2019-05-17T02:59:38.627Z,94717.96
2019-05-17T03:00:44.230Z,94721.14
2019-05-17T03:01:46.265Z,94725.94
2019-05-17T03:02:49.370Z,94717.96
2019-05-17T03:03:52.881Z,94715.08
2019-05-17T03:04:56.193Z,94713.75
2019-05-17T03:05:58.959Z,94718.87
2019-05-17T03:07:03.789Z,94714.67
2019-05-17T03:08:06.498Z,94711.81
2019-05-17T03:09:12.295Z,94713.14
2019-05-17T03:10:24.081Z,94707.31
2019-05-17T03:11:22.410Z,94708.45
2019-05-17T03:12:23.775Z,94710.78
2019-05-17T03:13:26.979Z,94707.22
2019-05-17T03:14:32.545Z,94710.59
2019-05-17T03:15:34.509Z,94721.52
2019-05-17T03:16:37.254Z,94717.64
2019-05-17T03:17:43.379Z,94721.92
2019-05-17T03:18:44.811Z,94727.36
2019-05-17T03:19:47.940Z,94722.86
2019-05-17T03:20:52.486Z,94725.91
2019-05-17T03:21:55.595Z,94722.13
2019-05-17T03:22:58.359Z,94721.84
2019-05-17T03:24:03.332Z,94719.27
2019-05-17T03:25:06.385Z,94719.19
2019-05-17T03:26:12.746Z,94712.53
2019-05-17T03:27:13.945Z,94717.43
2019-05-17T03:28:17.182Z,94716.92
2019-05-17T03:29:22.444Z,94718.74
2019-05-17T03:30:26.105Z,94721.70
2019-05-17T03:31:35.955Z,94727.90
2019-05-17T03:32:36.011Z,94722.17
2019-05-17T03:33:38.638Z,94724.02
2019-05-17T03:34:44.903Z,94725.05
2019-05-17T03:35:46.544Z,94731.11
2019-05-17T03:36:55.792Z,94726.93
2019-05-17T03:37:54.199Z,94729.77
2019-05-17T03:38:57.433Z,94734.65
2019-05-17T03:40:04.710Z,94728.23
2019-05-17T03:41:17.791Z,94728.27
2019-05-17T03:42:12.986Z,94720.72
2019-05-17T03:43:14.900Z,94724.52
2019-05-17T03:44:17.650Z,94733.00
2019-05-17T03:45:22.866Z,94733.61
2019-05-17T03:46:27.291Z,94731.06
2019-05-17T03:47:33.286Z,94729.41
2019-05-17T03:48:34.792Z,94733.09
2019-05-17T03:49:39.525Z,94729.91
2019-05-17T03:50:43.588Z,94735.84
2019-05-17T03:51:46.975Z,94734.44
2019-05-17T03:52:53.268Z,94730.13
2019-05-17T03:53:54.577Z,94736.88
2019-05-17T03:54:57.349Z,94732.78
2019-05-17T03:56:03.026Z,94732.69
2019-05-17T03:57:04.978Z,94732.90
2019-05-17T03:58:09.324Z,94731.18
2019-05-17T03:59:12.832Z,94729.11
2019-05-17T04:00:16.539Z,94731.25
2019-05-17T04:01:19.298Z,94731.58
2019-05-17T04:02:23.203Z,94734.34
2019-05-17T04:03:26.093Z,94731.05
2019-05-17T04:04:29.258Z,94728.20
2019-05-17T04:05:33.474Z,94733.43
2019-05-17T04:06:36.849Z,94734.77
2019-05-17T04:07:42.976Z,94735.97
2019-05-17T04:08:44.444Z,94731.78
2019-05-17T04:09:47.256Z,94734.34
2019-05-17T04:10:52.955Z,94729.63
2019-05-17T04:11:54.721Z,94736.89
2019-05-17T04:12:57.863Z,94734.13
2019-05-17T04:14:02.965Z,94734.02
2019-05-17T04:15:06.241Z,94734.31
2019-05-17T04:16:09.649Z,94736.97
2019-05-17T04:17:13.929Z,94734.02
2019-05-17T04:18:16.660Z,94732.58
2019-05-17T04:19:22.748Z,94731.77
2019-05-17T04:20:24.275Z,94736.06
2019-05-17T04:21:28.441Z,94737.28
2019-05-17T04:22:33.105Z,94739.12
2019-05-17T04:23:35.983Z,94741.50
2019-05-17T04:24:38.740Z,94741.50
2019-05-17T04:25:43.554Z,94742.31
2019-05-17T04:26:46.437Z,94741.17
2019-05-17T04:27:49.569Z,94740.66
2019-05-17T04:28:53.241Z,94745.78
2019-05-17T04:29:56.672Z,94742.50
2019-05-17T04:31:02.545Z,94742.50
2019-05-17T04:32:04.358Z,94744.34
2019-05-17T04:33:07.240Z,94743.53
2019-05-17T04:34:13.224Z,94746.20
2019-05-17T04:35:14.865Z,94744.86
2019-05-17T04:36:18.002Z,94742.39
2019-05-17T04:37:22.765Z,94744.24
2019-05-17T04:38:25.533Z,94742.91
2019-05-17T04:39:28.288Z,94745.58
2019-05-17T04:40:33.922Z,94746.72
2019-05-17T04:41:44.958Z,94749.78
2019-05-17T04:42:43.630Z,94745.28
2019-05-17T04:43:44.942Z,94738.81
2019-05-17T04:44:48.185Z,94748.94
2019-05-17T04:45:53.520Z,94742.30
2019-05-17T04:46:55.722Z,94746.28
2019-05-17T04:47:58.480Z,94745.58
2019-05-17T04:49:02.890Z,94740.96
2019-05-17T04:50:06.074Z,94741.99
2019-05-17T04:51:12.834Z,94739.34
2019-05-17T04:52:13.969Z,94743.84
2019-05-17T04:53:17.342Z,94744.36
2019-05-17T04:54:22.741Z,94745.98
2019-05-17T04:55:24.881Z,94743.84
2019-05-17T04:56:27.641Z,94744.36
2019-05-17T04:57:32.575Z,94738.71
2019-05-17T04:58:35.210Z,94745.69
2019-05-17T04:59:38.369Z,94748.35
2019-05-17T05:00:43.003Z,94752.34
2019-05-17T05:01:45.898Z,94750.27
2019-05-17T05:02:48.690Z,94755.81
2019-05-17T05:03:52.454Z,94754.67
2019-05-17T05:04:55.478Z,94755.00
2019-05-17T05:05:58.612Z,94756.00
2019-05-17T05:07:03.114Z,94752.83
2019-05-17T05:08:06.190Z,94754.48
2019-05-17T05:09:08.951Z,94750.91
2019-05-17T05:10:13.424Z,94757.33
2019-05-17T05:11:17.051Z,94750.68
2019-05-17T05:12:22.657Z,94753.86
2019-05-17T05:13:24.613Z,94750.91
2019-05-17T05:14:27.738Z,94753.34
2019-05-17T05:15:43.269Z,94752.83
2019-05-17T05:16:44.828Z,94749.68
2019-05-17T05:17:47.577Z,94749.16
2019-05-17T05:18:52.075Z,94749.68
2019-05-17T05:19:55.103Z,94749.68
2019-05-17T05:20:58.232Z,94755.11
2019-05-17T05:22:04.443Z,94747.94
2019-05-17T05:23:05.914Z,94750.59
2019-05-17T05:24:08.653Z,94752.74
2019-05-17T05:25:12.402Z,94751.19
2019-05-17T05:26:15.440Z,94749.56
2019-05-17T05:27:18.505Z,94756.52
2019-05-17T05:28:22.519Z,94749.86
2019-05-17T05:29:25.796Z,94753.85
2019-05-17T05:30:28.561Z,94748.53
2019-05-17T05:31:32.170Z,94750.37
2019-05-17T05:32:35.152Z,94753.85
2019-05-17T05:33:38.215Z,94753.85
2019-05-17T05:34:42.947Z,94749.05
2019-05-17T05:35:45.760Z,94748.23
2019-05-17T05:36:48.507Z,94748.53
2019-05-17T05:37:52.564Z,94750.08
2019-05-17T05:38:55.402Z,94747.20
2019-05-17T05:39:58.556Z,94751.19
2019-05-17T05:41:01.879Z,94753.85
2019-05-17T05:42:09.897Z,94753.85
2019-05-17T05:43:11.738Z,94748.86
2019-05-17T05:44:14.440Z,94752.03
2019-05-17T05:45:17.229Z,94746.20
2019-05-17T05:46:22.246Z,94746.49
2019-05-17T05:47:24.766Z,94744.16
2019-05-17T05:48:27.898Z,94748.96
2019-05-17T05:49:32.055Z,94747.41
2019-05-17T05:50:35.334Z,94741.50
2019-05-17T05:51:38.105Z,94743.94
2019-05-17T05:52:42.203Z,94744.75
2019-05-17T05:53:45.379Z,94746.08
2019-05-17T05:54:48.439Z,94745.27
2019-05-17T05:55:51.817Z,94746.19
2019-05-17T05:56:55.129Z,94746.19
2019-05-17T05:57:57.881Z,94745.18
2019-05-17T05:59:02.979Z,94744.66
2019-05-17T06:00:06.477Z,94746.91
2019-05-17T06:01:09.614Z,94750.67
2019-05-17T06:02:12.487Z,94744.35
2019-05-17T06:03:15.604Z,94743.34
2019-05-17T06:04:18.345Z,94744.97
2019-05-17T06:05:21.933Z,94749.30
2019-05-17T06:06:24.797Z,94748.77
2019-05-17T06:07:27.942Z,94750.40
2019-05-17T06:08:32.180Z,94747.45
2019-05-17T06:09:35.654Z,94747.03
2019-05-17T06:10:39.544Z,94746.84
2019-05-17T06:11:43.282Z,94751.13
2019-05-17T06:12:46.036Z,94748.23
2019-05-17T06:13:49.164Z,94747.23
2019-05-17T06:14:52.374Z,94751.33
2019-05-17T06:15:55.676Z,94748.77
2019-05-17T06:16:58.409Z,94746.41
2019-05-17T06:18:02.929Z,94746.70
2019-05-17T06:19:06.002Z,94748.53
2019-05-17T06:20:11.625Z,94756.13
2019-05-17T06:21:13.847Z,94746.29
2019-05-17T06:22:17.008Z,94749.25
2019-05-17T06:23:19.794Z,94753.77
2019-05-17T06:24:22.834Z,94755.71
2019-05-17T06:25:25.605Z,94754.67
2019-05-17T06:26:28.712Z,94757.34
2019-05-17T06:27:32.465Z,94755.48
2019-05-17T06:28:35.615Z,94754.48
2019-05-17T06:29:38.290Z,94756.92
2019-05-17T06:30:42.938Z,94757.44
2019-05-17T06:31:46.118Z,94759.58
2019-05-17T06:32:51.383Z,94761.43
2019-05-17T06:33:53.840Z,94764.91
2019-05-17T06:34:56.905Z,94763.58
2019-05-17T06:36:02.359Z,94765.72
2019-05-17T06:37:04.511Z,94766.05
2019-05-17T06:38:07.340Z,94766.15
2019-05-17T06:39:11.706Z,94760.41
2019-05-17T06:40:14.829Z,94763.88
2019-05-17T06:41:17.965Z,94760.99
2019-05-17T06:42:21.654Z,94761.80
2019-05-17T06:43:25.512Z,94765.60
2019-05-17T06:44:28.268Z,94761.61
2019-05-17T06:45:32.605Z,94765.09
2019-05-17T06:46:35.380Z,94762.23
2019-05-17T06:47:38.512Z,94771.33
2019-05-17T06:48:42.406Z,94765.80
2019-05-17T06:50:04.539Z,94774.09
2019-05-17T06:51:07.298Z,94767.43
2019-05-17T06:52:11.666Z,94765.67
2019-05-17T06:53:14.481Z,94762.30
2019-05-17T06:54:17.631Z,94767.92
2019-05-17T06:55:20.381Z,94766.39
2019-05-17T06:56:23.464Z,94768.02
2019-05-17T06:57:26.140Z,94763.02
2019-05-17T06:58:31.372Z,94768.93
2019-05-17T06:59:33.749Z,94768.44
2019-05-17T07:00:36.887Z,94765.03
2019-05-17T07:01:40.969Z,94764.31
2019-05-17T07:02:44.275Z,94759.70
2019-05-17T07:03:49.416Z,94763.24
2019-05-17T07:04:53.199Z,94761.09
2019-05-17T07:05:59.522Z,94763.77
2019-05-17T07:07:20.706Z,94761.91
2019-05-17T07:08:23.574Z,94762.20
2019-05-17T07:09:26.713Z,94765.39
2019-05-17T07:10:30.185Z,94760.88
2019-05-17T07:11:33.433Z,94764.16
2019-05-17T07:12:36.180Z,94764.16
2019-05-17T07:13:39.614Z,94757.78
2019-05-17T07:14:42.464Z,94751.77
2019-05-17T07:15:47.930Z,94757.91
2019-05-17T07:16:50.170Z,94757.48
2019-05-17T07:17:53.303Z,94754.30
2019-05-17T07:18:56.065Z,94757.87
2019-05-17T07:19:59.858Z,94759.81
2019-05-17T07:21:03.614Z,94755.49
2019-05-17T07:22:09.363Z,94753.67
2019-05-17T07:23:11.293Z,94753.87
2019-05-17T07:24:14.431Z,94760.62
2019-05-17T07:25:19.632Z,94751.30
2019-05-17T07:26:22.103Z,94744.41
2019-05-17T07:27:37.843Z,94746.64
2019-05-17T07:28:30.273Z,94741.72
2019-05-17T07:29:33.252Z,94744.91
2019-05-17T07:30:36.378Z,94748.39
2019-05-17T07:31:40.467Z,94743.25
2019-05-17T07:32:43.773Z,94739.48
2019-05-17T07:33:46.527Z,94746.15
2019-05-17T07:34:50.778Z,94741.54
2019-05-17T07:35:53.751Z,94742.58
2019-05-17T07:36:56.939Z,94743.07
2019-05-17T07:37:59.703Z,94740.11
2019-05-17T07:39:02.819Z,94749.97
2019-05-17T07:40:10.795Z,94738.48
2019-05-17T07:41:13.824Z,94745.45
2019-05-17T07:42:16.606Z,94742.58
2019-05-17T07:43:20.750Z,94743.16
2019-05-17T07:44:23.820Z,94743.48
2019-05-17T07:45:26.959Z,94747.06
2019-05-17T07:46:29.717Z,94746.11
2019-05-17T07:47:32.892Z,94745.30
2019-05-17T07:48:35.636Z,94750.30
2019-05-17T07:49:40.477Z,94743.87
2019-05-17T07:50:43.784Z,94742.31
2019-05-17T07:51:46.917Z,94743.34
2019-05-17T07:52:50.099Z,94747.06
2019-05-17T07:53:53.366Z,94751.05
2019-05-17T07:54:56.185Z,94755.77
2019-05-17T07:55:59.781Z,94756.81
2019-05-17T07:57:02.667Z,94758.87
2019-05-17T07:58:05.833Z,94762.57
2019-05-17T07:59:09.547Z,94761.95
2019-05-17T08:00:13.054Z,94763.00
2019-05-17T08:01:15.757Z,94755.40
2019-05-17T08:02:19.811Z,94760.44
2019-05-17T08:03:24.783Z,94764.66
2019-05-17T08:04:29.854Z,94759.01
2019-05-17T08:05:31.944Z,94764.86
2019-05-17T08:06:35.085Z,94759.53
2019-05-17T08:07:40.343Z,94761.38
2019-05-17T08:08:42.629Z,94756.25
2019-05-17T08:09:45.462Z,94754.63
2019-05-17T08:10:51.059Z,94751.96
2019-05-17T08:11:53.020Z,94746.62
2019-05-17T08:12:56.230Z,94752.58
2019-05-17T08:13:59.783Z,94749.39
2019-05-17T08:15:03.033Z,94746.20
2019-05-17T08:16:05.847Z,94737.69
2019-05-17T08:17:10.667Z,94744.45
2019-05-17T08:18:13.439Z,94743.20
2019-05-17T08:19:16.610Z,94747.20
2019-05-17T08:20:20.351Z,94739.73
2019-05-17T08:21:23.635Z,94740.34
2019-05-17T08:22:26.398Z,94738.48
2019-05-17T08:23:30.455Z,94738.69
2019-05-17T08:24:33.422Z,94734.69
2019-05-17T08:25:49.694Z,94733.87
2019-05-17T08:26:40.967Z,94729.06
2019-05-17T08:27:44.092Z,94727.73
2019-05-17T08:28:46.846Z,94728.02
2019-05-17T08:29:50.071Z,94728.02
2019-05-17T08:30:52.787Z,94731.83
2019-05-17T08:31:55.901Z,94728.59
2019-05-17T08:33:00.844Z,94730.81
2019-05-17T08:34:03.531Z,94724.63
2019-05-17T08:35:06.405Z,94730.95
2019-05-17T08:36:09.620Z,94726.19
2019-05-17T08:37:12.373Z,94718.28
2019-05-17T08:38:15.514Z,94724.84
2019-05-17T08:39:19.778Z,94722.17
2019-05-17T08:40:23.052Z,94724.92
2019-05-17T08:41:25.812Z,94722.55
2019-05-17T08:42:30.025Z,94718.84
2019-05-17T08:43:42.529Z,94721.50
2019-05-17T08:44:39.393Z,94722.64
2019-05-17T08:45:42.284Z,94718.44
2019-05-17T08:46:45.461Z,94717.10
2019-05-17T08:47:50.018Z,94719.53
2019-05-17T08:48:53.012Z,94713.16
2019-05-17T08:49:55.769Z,94717.48
2019-05-17T08:51:00.116Z,94714.81
2019-05-17T08:52:03.099Z,94716.14
2019-05-17T08:53:06.220Z,94718.37
2019-05-17T08:54:10.344Z,94718.67
2019-05-17T08:55:13.822Z,94716.81
2019-05-17T08:56:16.689Z,94721.22
2019-05-17T08:57:20.715Z,94718.84
2019-05-17T08:58:23.434Z,94716.17
2019-05-17T08:59:26.597Z,94713.59
2019-05-17T09:00:32.153Z,94707.73
2019-05-17T09:01:38.244Z,94713.22
2019-05-17T09:02:40.905Z,94706.48
2019-05-17T09:03:44.290Z,94703.39
2019-05-17T09:04:49.606Z,94703.39
2019-05-17T09:05:52.864Z,94707.82
2019-05-17T09:06:55.901Z,94705.73
2019-05-17T09:08:00.096Z,94709.36
2019-05-17T09:09:03.777Z,94705.27
2019-05-17T09:10:09.649Z,94704.95
2019-05-17T09:11:11.553Z,94702.08
2019-05-17T09:12:14.672Z,94706.84
2019-05-17T09:13:19.396Z,94702.28
2019-05-17T09:14:22.213Z,94701.04
2019-05-17T09:15:24.974Z,94703.27
2019-05-17T09:16:30.567Z,94704.89
2019-05-17T09:17:32.558Z,94701.79
2019-05-17T09:18:35.677Z,94701.79
2019-05-17T09:19:39.503Z,94704.08
2019-05-17T09:20:42.792Z,94705.04
2019-05-17T09:21:45.559Z,94706.38
2019-05-17T09:22:50.874Z,94700.86
2019-05-17T09:23:53.173Z,94706.34
2019-05-17T09:24:56.298Z,94711.59
2019-05-17T09:25:59.551Z,94703.18
2019-05-17T09:27:02.906Z,94713.56
2019-05-17T09:28:05.708Z,94708.95
2019-05-17T09:29:10.734Z,94708.38
2019-05-17T09:30:13.446Z,94707.53
2019-05-17T09:31:16.587Z,94703.76
2019-05-17T09:32:20.175Z,94709.09
2019-05-17T09:33:23.657Z,94709.09
2019-05-17T09:34:26.345Z,94704.28
2019-05-17T09:35:30.079Z,94704.56
2019-05-17T09:36:32.962Z,94697.99
2019-05-17T09:37:36.121Z,94695.23
2019-05-17T09:38:40.433Z,94698.13
2019-05-17T09:39:43.681Z,94694.86
2019-05-17T09:40:46.436Z,94694.77
2019-05-17T09:41:50.263Z,94693.95
2019-05-17T09:42:53.251Z,94697.44
2019-05-17T09:44:09.580Z,94698.77
2019-05-17T09:45:00.844Z,94697.95
2019-05-17T09:46:04.076Z,94691.30
2019-05-17T09:47:06.832Z,94695.29
2019-05-17T09:48:10.575Z,94696.30
2019-05-17T09:49:13.493Z,94693.63
2019-05-17T09:50:16.997Z,94696.30
2019-05-17T09:51:19.767Z,94696.53
2019-05-17T09:52:22.889Z,94696.24
2019-05-17T09:53:25.720Z,94690.07
2019-05-17T09:54:41.407Z,94688.24
2019-05-17T09:55:33.343Z,94689.58
2019-05-17T09:56:36.473Z,94693.63
2019-05-17T09:57:40.819Z,94690.56
2019-05-17T09:58:44.413Z,94697.00
2019-05-17T09:59:49.478Z,94689.23
2019-05-17T10:00:51.997Z,94688.19
2019-05-17T10:01:54.764Z,94696.80
2019-05-17T10:02:59.896Z,94696.05
2019-05-17T10:04:02.395Z,94689.90
2019-05-17T10:05:06.640Z,94693.79
2019-05-17T10:06:09.774Z,94687.41
2019-05-17T10:07:12.940Z,94684.66
2019-05-17T10:08:15.681Z,94691.33
2019-05-17T10:09:19.582Z,94689.56
2019-05-17T10:10:22.449Z,94690.89
2019-05-17T10:11:25.542Z,94684.52
2019-05-17T10:12:28.308Z,94681.55
2019-05-17T10:13:31.523Z,94680.22
2019-05-17T10:14:34.284Z,94672.74
2019-05-17T10:15:37.435Z,94678.89
2019-05-17T10:16:40.181Z,94670.59
2019-05-17T10:17:43.403Z,94672.74
2019-05-17T10:18:46.229Z,94683.94
2019-05-17T10:19:49.368Z,94675.61
2019-05-17T10:20:52.178Z,94675.61
2019-05-17T10:21:55.324Z,94677.27
2019-05-17T10:22:59.576Z,94683.41
2019-05-17T10:24:02.912Z,94680.75
2019-05-17T10:25:06.333Z,94677.84
2019-05-17T10:26:10.236Z,94678.89
2019-05-17T10:27:14.696Z,94679.70
2019-05-17T10:28:20.344Z,94684.83
2019-05-17T10:29:22.363Z,94685.27
2019-05-17T10:30:25.535Z,94680.66
2019-05-17T10:31:30.265Z,94682.80
2019-05-17T10:32:33.111Z,94684.37
2019-05-17T10:33:35.866Z,94688.05
2019-05-17T10:34:40.128Z,94681.70
2019-05-17T10:35:43.152Z,94685.47
2019-05-17T10:36:46.258Z,94680.95
2019-05-17T10:37:50.616Z,94682.59
2019-05-17T10:38:53.867Z,94685.55
2019-05-17T10:39:56.630Z,94676.75
2019-05-17T10:40:59.780Z,94681.84
2019-05-17T10:42:02.606Z,94683.50
2019-05-17T10:43:05.738Z,94675.17
2019-05-17T10:44:09.428Z,94680.22
2019-05-17T10:45:12.624Z,94682.36
2019-05-17T10:46:15.383Z,94680.22
2019-05-17T10:47:19.572Z,94679.41
2019-05-17T10:48:22.402Z,94678.89
2019-05-17T10:49:25.541Z,94671.17
2019-05-17T10:50:29.804Z,94675.17
2019-05-17T10:51:33.195Z,94673.64
2019-05-17T10:52:36.036Z,94684.92
2019-05-17T10:53:40.276Z,94678.45
2019-05-17T10:54:43.060Z,94676.02
2019-05-17T10:55:46.261Z,94676.22
2019-05-17T10:56:50.250Z,94677.84
2019-05-17T10:57:53.596Z,94673.03
2019-05-17T10:58:56.294Z,94673.84
2019-05-17T10:59:59.489Z,94675.70
2019-05-17T11:01:02.295Z,94677.55
2019-05-17T11:02:05.414Z,94676.22
2019-05-17T11:03:09.764Z,94674.37
2019-05-17T11:04:15.193Z,94673.84
2019-05-17T11:05:20.116Z,94672.83
2019-05-17T11:06:24.076Z,94675.70
2019-05-17T11:07:28.593Z,94671.17
2019-05-17T11:08:31.681Z,94674.89
2019-05-17T11:09:34.438Z,94673.98
2019-05-17T11:10:39.278Z,94679.03
2019-05-17T11:11:41.977Z,94671.52
2019-05-17T11:12:45.120Z,94669.98
2019-05-17T11:13:47.851Z,94668.95
2019-05-17T11:15:09.365Z,94666.59
2019-05-17T11:15:55.685Z,94664.22
2019-05-17T11:17:00.639Z,94661.35
2019-05-17T11:18:03.389Z,94663.70
2019-05-17T11:19:08.744Z,94658.69
2019-05-17T11:20:11.220Z,94660.51
2019-05-17T11:21:14.356Z,94663.70
2019-05-17T11:22:17.125Z,94657.34
2019-05-17T11:23:20.257Z,94651.50
2019-05-17T11:24:23.119Z,94653.64
2019-05-17T11:25:26.124Z,94652.10
2019-05-17T11:26:29.338Z,94654.77
2019-05-17T11:27:32.451Z,94655.78
2019-05-17T11:28:35.303Z,94655.17
2019-05-17T11:29:38.499Z,94648.22
2019-05-17T11:30:41.298Z,94655.12
2019-05-17T11:31:44.361Z,94651.52
2019-05-17T11:32:47.132Z,94647.23
2019-05-17T11:33:50.284Z,94653.09
2019-05-17T11:34:53.098Z,94648.80
2019-05-17T11:35:56.229Z,94646.95
2019-05-17T11:36:59.001Z,94636.48
2019-05-17T11:38:02.120Z,94646.72
2019-05-17T11:39:06.080Z,94644.80
2019-05-17T11:40:09.637Z,94645.30
2019-05-17T11:41:21.300Z,94650.14
2019-05-17T11:42:17.172Z,94654.14
2019-05-17T11:43:20.066Z,94651.15
2019-05-17T11:44:23.310Z,94652.48
2019-05-17T11:45:29.036Z,94655.47
2019-05-17T11:46:36.057Z,94656.48
2019-05-17T11:47:35.369Z,94656.80
2019-05-17T11:48:38.509Z,94649.00
2019-05-17T11:49:41.375Z,94651.67
2019-05-17T11:50:44.541Z,94652.19
2019-05-17T11:51:47.303Z,94655.67
2019-05-17T11:52:50.431Z,94655.95
2019-05-17T11:53:53.156Z,94654.14
2019-05-17T11:54:56.292Z,94652.80
2019-05-17T11:55:59.060Z,94658.42
2019-05-17T11:57:02.227Z,94655.52
2019-05-17T11:58:05.016Z,94649.70
2019-05-17T11:59:08.133Z,94649.17
2019-05-17T12:00:11.372Z,94651.52
2019-05-17T12:01:14.530Z,94651.03
2019-05-17T12:02:17.291Z,94648.37
2019-05-17T12:03:20.438Z,94645.17
2019-05-17T12:04:23.202Z,94647.03
2019-05-17T12:05:26.399Z,94650.52
2019-05-17T12:06:29.233Z,94651.32
2019-05-17T12:07:32.384Z,94651.32
2019-05-17T12:08:35.144Z,94644.86
2019-05-17T12:09:38.308Z,94644.05
2019-05-17T12:10:41.135Z,94640.05
2019-05-17T12:11:44.333Z,94642.19
2019-05-17T12:12:47.091Z,94640.05
2019-05-17T12:13:50.214Z,94644.37
2019-05-17T12:14:52.973Z,94644.05
2019-05-17T12:15:56.106Z,94639.32
2019-05-17T12:16:58.905Z,94639.52
2019-05-17T12:18:01.966Z,94641.70
2019-05-17T12:19:04.833Z,94643.03
2019-05-17T12:20:08.071Z,94639.03
2019-05-17T12:21:10.874Z,94642.19
2019-05-17T12:22:14.002Z,94641.70
2019-05-17T12:23:16.753Z,94640.66
2019-05-17T12:24:19.801Z,94638.19
2019-05-17T12:25:22.671Z,94639.84
2019-05-17T12:26:25.845Z,94635.32